North Boston, New York
Current Conditions -  °F | °C
As of 9:54 AM on Sunday 21 Dec 2014 (Local Time) from KBUF Reporting Station
Broken Clouds Broken Clouds  
Wind Chill: 30°   Ceiling: 6500
Heat Index: 30°   Visibility: 10mi
Dew Point: 22°   Wind: 3mph
Humidity: 72%   Direction: 270°W
Pressure: 30.32"   Gusts: NA
Location:  42.67°N, 78.78°W
Report Text: KBUF 211454Z 27003KT 10SM SCT032 BKN065 BKN130 M01/M06 A3032 RMK AO2 SLP275 T10111056 51009
Loading
Personal Weather Stations






























Interactive Weather Map New forecast layout! Learn more

10-Day Weather Forecast

Advertisements
Track Severe Weather on mobile